Dirección General De Aeronáutica Civil

Dirección Meteorológica de Chile - Servicios Climáticos

Informe General de Control de Calidad de la Estación

Listado de niveles de control de calidad para algunos parámetros
Estación Casablanca, Casas del Bosque (330090)
Fecha de Revisión de los datos :

Elementos

Registros Niveles de Control Total
Nivel 0 Nivel 1 Nivel 2 Nivel 3 Errores Porcentaje
01 Temperatura del Aire Seco 137.315 0 . 277 0.20 % 0 . 0 . 277 0.20 %
02 Temperatura de Rocío 123.292 0 . 0 . 0 . 0 . 0 0.00 %
03 Humedad Relativa del Aire 123.308 0 . 0 . 0 . 0 . 0 0.00 %
04 Temperatura Máxima PM 7.336 0 . 0 . 23 0.31 % 0 . 23 0.31 %
05 Temperatura Mínima AM 7.326 0 . 0 . 18 0.25 % 0 . 18 0.25 %
06 Viento a 10 m. de Altura 2 0 . 0 . 0 . 0 . 0 0.00 %
07 Agua Caida, Acumulada 6 Horas 21.210 0 . 0 . 0 . 0 . 0 0.00 %
08 Presión Atm. a Nivel de Estación (QFE) 122.873 0 . 0 . 0 . 0 . 0 0.00 %
09 Presión Atm. a Nivel Medio del Mar (QFF) 32.132 0 . 0 . 0 . 0 . 0 0.00 %
10 Presión Atm. Estándar OACI (QNH) 32.132 0 . 0 . 0 . 0 . 0 0.00 %

Totales

606.926 . 0.0000 % . 0.0456 % . 0.0068 % . 0.0000 % 318 0.0524 %

Detalle de Errores Recientes

Fecha del Dato Descripción Información Error Fecha Ingreso
1999-07-29 00:00:00 Temperatura 11.0 del 29-07-1999 00:00, Mayor que la Máxima 10.8 29-07-1999 00:00 11.0 -- 10.8 2023-12-29 00:11:00
1999-11-28 00:00:00 Temperatura 21.6 del 27-11-1999 18:00, Mayor que la Máxima 21.2 28-11-1999 00:00 21.6 -- 21.2 2023-12-29 00:11:00
2000-02-17 00:00:00 Temperatura 25.4 del 16-02-2000 18:00, Mayor que la Máxima 25.2 17-02-2000 00:00 25.4 -- 25.2 2023-12-29 00:11:00
2001-01-06 00:00:00 Temperatura 21.0 del 05-01-2001 18:00, Mayor que la Máxima 20.6 06-01-2001 00:00 21.0 -- 20.6 2023-12-29 00:12:00
2001-01-07 00:00:00 Temperatura 24.0 del 06-01-2001 18:00, Mayor que la Máxima 22.6 07-01-2001 00:00 24.0 -- 22.6 2023-12-29 00:12:00
2001-01-23 00:00:00 Temperatura 24.8 del 22-01-2001 18:00, Mayor que la Máxima 24.7 23-01-2001 00:00 24.8 -- 24.7 2023-12-29 00:12:00
2001-02-02 00:00:00 Temperatura 25.9 del 01-02-2001 18:00, Mayor que la Máxima 25.2 02-02-2001 00:00 25.9 -- 25.2 2023-12-29 00:12:00
2001-02-06 00:00:00 Temperatura 27.3 del 05-02-2001 18:00, Mayor que la Máxima 27.1 06-02-2001 00:00 27.3 -- 27.1 2023-12-29 00:12:00
2002-02-07 00:00:00 Temperatura 25.4 del 06-02-2002 18:00, Mayor que la Máxima 25.2 07-02-2002 00:00 25.4 -- 25.2 2023-12-29 00:12:00
2003-05-02 00:00:00 Temperatura 26.6 del 01-05-2003 18:00, Mayor que la Máxima 23.4 02-05-2003 00:00 26.6 -- 23.4 2023-12-29 22:27:00
2003-07-30 00:00:00 Temperatura 28.6 del 29-07-2003 18:00, Mayor que la Máxima 23.6 30-07-2003 00:00 28.6 -- 23.6 2023-12-29 22:27:00
2003-10-17 00:00:00 Temperatura 21.4 del 16-10-2003 18:00, Mayor que la Máxima 21.3 17-10-2003 00:00 21.4 -- 21.3 2023-12-29 22:27:00
2003-10-24 00:00:00 Temperatura 23.8 del 23-10-2003 18:00, Mayor que la Máxima 16.6 24-10-2003 00:00 23.8 -- 16.6 2023-12-29 22:27:00
2004-09-01 00:00:00 Temperatura 16.4 del 31-08-2004 18:00, Mayor que la Máxima 16.0 01-09-2004 00:00 16.4 -- 16.0 2023-12-31 02:38:00
2004-09-18 00:00:00 Temperatura 13.0 del 17-09-2004 18:00, Mayor que la Máxima 12.6 18-09-2004 00:00 13.0 -- 12.6 2023-12-31 02:38:00
2009-03-15 00:00:00 Temperatura 30.5 del 14-03-2009 17:00, Mayor que la Máxima 28.6 15-03-2009 00:00 30.5 -- 28.6 2023-12-31 00:58:00
2009-03-21 00:00:00 Temperatura 24.5 del 20-03-2009 16:00, Mayor que la Máxima 20.7 21-03-2009 00:00 24.5 -- 20.7 2023-12-31 00:58:00
2009-03-23 00:00:00 Temperatura 25.2 del 22-03-2009 15:00, Mayor que la Máxima 23.1 23-03-2009 00:00 25.2 -- 23.1 2023-12-31 00:58:00
2009-03-26 00:00:00 Temperatura 23.7 del 25-03-2009 16:00, Mayor que la Máxima 23.1 26-03-2009 00:00 23.7 -- 23.1 2023-12-31 00:59:00
2009-03-27 00:00:00 Temperatura 25.4 del 26-03-2009 16:00, Mayor que la Máxima 23.7 27-03-2009 00:00 25.4 -- 23.7 2023-12-31 00:59:00
2009-03-29 00:00:00 Temperatura 27.4 del 28-03-2009 16:00, Mayor que la Máxima 22.4 29-03-2009 00:00 27.4 -- 22.4 2023-12-31 00:59:00
2009-03-31 00:00:00 Temperatura 25.9 del 30-03-2009 15:00, Mayor que la Máxima 24.2 31-03-2009 00:00 25.9 -- 24.2 2023-12-31 00:59:00
2009-04-01 00:00:00 Temperatura 31.7 del 31-03-2009 16:00, Mayor que la Máxima 27.6 01-04-2009 00:00 31.7 -- 27.6 2023-12-31 00:59:00
2001-01-02 12:00:00 Temperatura 6.2 del 02-01-2001 12:00, Menor que la Mínima 7.5 02-01-2001 12:00 6.2 -- 7.5 2023-12-29 00:12:00
2002-08-06 12:00:00 Temperatura 8.0 del 06-08-2002 12:00, Menor que la Mínima 8.6 06-08-2002 12:00 8.0 -- 8.6 2023-12-29 00:13:00
2002-11-11 12:00:00 Temperatura 10.4 del 11-11-2002 12:00, Menor que la Mínima 13.8 11-11-2002 12:00 10.4 -- 13.8 2023-12-29 00:13:00
2002-11-18 12:00:00 Temperatura 12.2 del 18-11-2002 12:00, Menor que la Mínima 15.0 18-11-2002 12:00 12.2 -- 15.0 2023-12-29 00:13:00
2003-01-16 12:00:00 Temperatura 12.4 del 16-01-2003 12:00, Menor que la Mínima 18.6 16-01-2003 12:00 12.4 -- 18.6 2023-12-30 22:02:00
2003-04-29 12:00:00 Temperatura 4.8 del 29-04-2003 12:00, Menor que la Mínima 11.0 29-04-2003 12:00 4.8 -- 11.0 2023-12-30 22:03:00
2003-07-02 12:00:00 Temperatura 3.2 del 02-07-2003 12:00, Menor que la Mínima 5.2 02-07-2003 12:00 3.2 -- 5.2 2023-12-29 22:27:00
2009-03-14 12:00:00 Temperatura 6.9 del 14-03-2009 11:00, Menor que la Mínima 12.6 14-03-2009 12:00 6.9 -- 12.6 2023-12-31 00:58:00
2009-03-15 12:00:00 Temperatura 5.7 del 15-03-2009 09:00, Menor que la Mínima 6.7 15-03-2009 12:00 5.7 -- 6.7 2023-12-31 00:58:00
2009-03-16 12:00:00 Temperatura 4.4 del 16-03-2009 09:00, Menor que la Mínima 5.6 16-03-2009 12:00 4.4 -- 5.6 2023-12-31 00:58:00
2009-03-20 12:00:00 Temperatura 10.0 del 20-03-2009 11:00, Menor que la Mínima 13.0 20-03-2009 12:00 10.0 -- 13.0 2023-12-31 00:58:00
2009-03-21 12:00:00 Temperatura 8.2 del 21-03-2009 09:00, Menor que la Mínima 10.0 21-03-2009 12:00 8.2 -- 10.0 2023-12-31 00:58:00
2009-03-22 12:00:00 Temperatura 2.5 del 22-03-2009 09:00, Menor que la Mínima 7.8 22-03-2009 12:00 2.5 -- 7.8 2023-12-31 00:58:00
2009-03-25 12:00:00 Temperatura 7.6 del 25-03-2009 03:00, Menor que la Mínima 9.2 25-03-2009 12:00 7.6 -- 9.2 2023-12-31 00:59:00
2009-03-26 12:00:00 Temperatura 5.4 del 26-03-2009 09:00, Menor que la Mínima 7.6 26-03-2009 12:00 5.4 -- 7.6 2023-12-31 00:59:00
2009-03-28 12:00:00 Temperatura 7.8 del 28-03-2009 09:00, Menor que la Mínima 11.0 28-03-2009 12:00 7.8 -- 11.0 2023-12-31 00:59:00
2009-03-30 12:00:00 Temperatura 10.1 del 30-03-2009 09:00, Menor que la Mínima 13.4 30-03-2009 12:00 10.1 -- 13.4 2023-12-31 00:59:00
2009-03-31 12:00:00 Temperatura 7.4 del 31-03-2009 10:00, Menor que la Mínima 10.0 31-03-2009 12:00 7.4 -- 10.0 2023-12-31 00:59:00
Total de Errores Recientes 41

Detalle de Errores Encontrados

Nivel Fecha del Dato Descripción Información Error Fecha Ingreso
1 2013-09-08 07:00:00 Ts debe ser mayor o igual a Td Ts=8.4 - Td=8.5 2023-10-25 00:23:00
1 2013-09-08 08:00:00 Ts debe ser mayor o igual a Td Ts=7.6 - Td=7.7 2023-10-25 00:23:00
1 2013-09-10 07:00:00 Ts debe ser mayor o igual a Td Ts=7.6 - Td=7.7 2023-10-25 00:23:00
1 2013-09-10 11:00:00 Ts debe ser mayor o igual a Td Ts=7.8 - Td=7.9 2023-10-25 00:23:00
1 2014-05-04 11:00:00 Ts debe ser mayor o igual a Td Ts=8.3 - Td=8.4 2023-10-25 00:26:00
1 2014-05-04 13:00:00 Ts debe ser mayor o igual a Td Ts=10.7 - Td=10.8 2023-10-25 00:26:00
1 2014-05-13 10:00:00 Ts debe ser mayor o igual a Td Ts=6.7 - Td=6.8 2023-10-25 00:26:00
1 2014-05-13 12:00:00 Ts debe ser mayor o igual a Td Ts=6.9 - Td=7.0 2023-10-25 00:26:00
1 2014-05-16 07:00:00 Ts debe ser mayor o igual a Td Ts=8.8 - Td=8.9 2023-10-25 00:26:00
1 2014-05-16 08:00:00 Ts debe ser mayor o igual a Td Ts=8.7 - Td=8.8 2023-10-25 00:26:00
1 2014-05-30 13:00:00 Ts debe ser mayor o igual a Td Ts=7.2 - Td=7.3 2023-10-25 00:26:00
1 2014-06-27 15:00:00 Ts debe ser mayor o igual a Td Ts=8.7 - Td=8.8 2023-10-25 00:27:00
1 2014-06-30 03:00:00 Ts debe ser mayor o igual a Td Ts=6.8 - Td=6.9 2023-10-25 00:27:00
1 2014-06-30 05:00:00 Ts debe ser mayor o igual a Td Ts=7.1 - Td=7.2 2023-10-25 00:27:00
1 2014-07-15 14:00:00 Ts debe ser mayor o igual a Td Ts=6.6 - Td=6.7 2023-10-25 00:27:00
1 2014-07-15 15:00:00 Ts debe ser mayor o igual a Td Ts=8.8 - Td=8.9 2023-10-25 00:27:00
1 2014-07-15 16:00:00 Ts debe ser mayor o igual a Td Ts=10.7 - Td=10.8 2023-10-25 00:27:00
1 2014-07-16 12:00:00 Ts debe ser mayor o igual a Td Ts=7.1 - Td=7.2 2023-10-25 00:27:00
1 2014-07-29 10:00:00 Ts debe ser mayor o igual a Td Ts=8.1 - Td=8.2 2023-10-25 00:27:00
1 2014-08-01 12:00:00 Ts debe ser mayor o igual a Td Ts=7.2 - Td=7.3 2023-10-25 00:27:00
1 2014-08-02 11:00:00 Ts debe ser mayor o igual a Td Ts=10.7 - Td=10.8 2023-10-25 00:27:00
1 2014-08-31 10:00:00 Ts debe ser mayor o igual a Td Ts=7.8 - Td=7.9 2023-10-25 00:28:00
1 2014-09-02 05:00:00 Ts debe ser mayor o igual a Td Ts=7.4 - Td=7.5 2023-10-25 00:28:00
1 2014-09-02 10:00:00 Ts debe ser mayor o igual a Td Ts=7.5 - Td=7.6 2023-10-25 00:28:00
1 2014-09-02 12:00:00 Ts debe ser mayor o igual a Td Ts=8.4 - Td=8.5 2023-10-25 00:28:00
1 2014-09-02 13:00:00 Ts debe ser mayor o igual a Td Ts=8.8 - Td=8.9 2023-10-25 00:28:00
1 2014-09-06 12:00:00 Ts debe ser mayor o igual a Td Ts=7.0 - Td=7.1 2023-10-25 00:28:00
1 2014-09-08 09:00:00 Ts debe ser mayor o igual a Td Ts=7.2 - Td=7.3 2023-10-25 00:28:00
1 2014-09-16 10:00:00 Ts debe ser mayor o igual a Td Ts=9.4 - Td=9.5 2023-10-25 00:28:00
1 2014-09-16 11:00:00 Ts debe ser mayor o igual a Td Ts=9.4 - Td=9.5 2023-10-25 00:28:00
1 2014-09-19 09:00:00 Ts debe ser mayor o igual a Td Ts=7.2 - Td=7.3 2023-10-25 00:28:00
1 2014-09-19 12:00:00 Ts debe ser mayor o igual a Td Ts=7.6 - Td=7.7 2023-10-25 00:28:00
1 2014-09-23 14:00:00 Ts debe ser mayor o igual a Td Ts=9.4 - Td=9.5 2023-10-25 00:28:00
1 2014-09-25 12:00:00 Ts debe ser mayor o igual a Td Ts=8.8 - Td=8.9 2023-10-25 00:28:00
1 2014-09-30 09:00:00 Ts debe ser mayor o igual a Td Ts=10.3 - Td=10.4 2023-10-25 00:28:00
1 2014-10-01 10:00:00 Ts debe ser mayor o igual a Td Ts=6.6 - Td=6.7 2023-10-25 00:28:00
1 2014-10-01 11:00:00 Ts debe ser mayor o igual a Td Ts=6.7 - Td=6.8 2023-10-25 00:28:00
1 2014-10-01 12:00:00 Ts debe ser mayor o igual a Td Ts=8.1 - Td=8.2 2023-10-25 00:28:00
1 2014-10-01 13:00:00 Ts debe ser mayor o igual a Td Ts=12.7 - Td=12.8 2023-10-25 00:28:00
1 2014-10-06 06:00:00 Ts debe ser mayor o igual a Td Ts=7.6 - Td=7.7 2023-10-25 00:28:00
1 2014-10-06 07:00:00 Ts debe ser mayor o igual a Td Ts=8.2 - Td=8.3 2023-10-25 00:28:00
1 2014-11-08 11:00:00 Ts debe ser mayor o igual a Td Ts=7.3 - Td=7.4 2023-10-25 00:29:00
1 2014-11-30 10:00:00 Ts debe ser mayor o igual a Td Ts=9.0 - Td=9.1 2023-10-25 00:29:00
1 2015-04-09 12:00:00 Ts debe ser mayor o igual a Td Ts=8.6 - Td=8.7 2023-10-25 00:32:00
1 2015-04-09 13:00:00 Ts debe ser mayor o igual a Td Ts=10.7 - Td=10.8 2023-10-25 00:32:00
1 2015-04-28 14:00:00 Ts debe ser mayor o igual a Td Ts=14.4 - Td=14.5 2023-10-25 00:32:00
1 2015-04-30 08:00:00 Ts debe ser mayor o igual a Td Ts=7.6 - Td=7.7 2023-10-25 00:32:00
1 2015-04-30 12:00:00 Ts debe ser mayor o igual a Td Ts=7.3 - Td=7.4 2023-10-25 00:32:00
1 2015-05-12 11:00:00 Ts debe ser mayor o igual a Td Ts=7.2 - Td=7.3 2023-10-25 00:32:00
1 2015-05-12 12:00:00 Ts debe ser mayor o igual a Td Ts=7.4 - Td=7.5 2023-10-25 00:32:00
1 2015-05-19 13:00:00 Ts debe ser mayor o igual a Td Ts=9.0 - Td=9.1 2023-10-25 00:32:00
1 2015-05-30 15:00:00 Ts debe ser mayor o igual a Td Ts=10.7 - Td=10.8 2023-10-25 00:32:00
1 2015-06-07 07:00:00 Ts debe ser mayor o igual a Td Ts=7.3 - Td=7.4 2023-10-25 00:33:00
1 2015-06-08 12:00:00 Ts debe ser mayor o igual a Td Ts=5.7 - Td=5.8 2023-10-25 00:33:00
1 2015-06-08 14:00:00 Ts debe ser mayor o igual a Td Ts=8.4 - Td=8.5 2023-10-25 00:33:00
1 2015-06-23 10:00:00 Ts debe ser mayor o igual a Td Ts=4.8 - Td=4.9 2023-10-25 00:33:00
1 2015-06-26 14:00:00 Ts debe ser mayor o igual a Td Ts=8.1 - Td=8.2 2023-10-25 00:33:00
1 2015-07-06 03:00:00 Ts debe ser mayor o igual a Td Ts=4.8 - Td=4.9 2023-10-25 00:33:00
1 2015-07-06 08:00:00 Ts debe ser mayor o igual a Td Ts=5.6 - Td=5.7 2023-10-25 00:33:00
1 2015-07-06 15:00:00 Ts debe ser mayor o igual a Td Ts=9.4 - Td=9.5 2023-10-25 00:33:00
1 2015-07-10 07:00:00 Ts debe ser mayor o igual a Td Ts=11.4 - Td=11.5 2023-10-25 00:33:00
1 2015-07-10 09:00:00 Ts debe ser mayor o igual a Td Ts=11.4 - Td=11.5 2023-10-25 00:33:00
1 2015-07-10 13:00:00 Ts debe ser mayor o igual a Td Ts=11.8 - Td=11.9 2023-10-25 00:33:00
1 2015-07-11 10:00:00 Ts debe ser mayor o igual a Td Ts=8.6 - Td=8.7 2023-10-25 00:33:00
1 2015-07-11 11:00:00 Ts debe ser mayor o igual a Td Ts=8.2 - Td=8.3 2023-10-25 00:33:00
1 2015-07-11 12:00:00 Ts debe ser mayor o igual a Td Ts=9.2 - Td=9.3 2023-10-25 00:33:00
1 2015-07-15 14:00:00 Ts debe ser mayor o igual a Td Ts=6.9 - Td=7.0 2023-10-25 00:33:00
1 2015-07-18 14:00:00 Ts debe ser mayor o igual a Td Ts=7.0 - Td=7.1 2023-10-25 00:33:00
1 2015-07-25 13:00:00 Ts debe ser mayor o igual a Td Ts=7.6 - Td=7.7 2023-10-25 00:33:00
1 2015-07-31 14:00:00 Ts debe ser mayor o igual a Td Ts=8.5 - Td=8.6 2023-10-25 00:33:00
1 2015-08-04 08:00:00 Ts debe ser mayor o igual a Td Ts=4.8 - Td=4.9 2023-10-25 00:34:00
1 2015-08-04 12:00:00 Ts debe ser mayor o igual a Td Ts=7.3 - Td=7.4 2023-10-25 00:34:00
1 2015-08-10 09:00:00 Ts debe ser mayor o igual a Td Ts=8.4 - Td=8.5 2023-10-25 00:34:00
1 2015-08-11 09:00:00 Ts debe ser mayor o igual a Td Ts=5.7 - Td=5.8 2023-10-25 00:34:00
1 2015-08-22 09:00:00 Ts debe ser mayor o igual a Td Ts=9.3 - Td=9.4 2023-10-25 00:34:00
1 2015-08-22 11:00:00 Ts debe ser mayor o igual a Td Ts=9.1 - Td=9.2 2023-10-25 00:34:00
1 2015-08-27 12:00:00 Ts debe ser mayor o igual a Td Ts=6.9 - Td=7.0 2023-10-25 00:34:00
1 2015-09-04 11:00:00 Ts debe ser mayor o igual a Td Ts=4.8 - Td=4.9 2023-10-25 00:34:00
1 2015-09-05 06:00:00 Ts debe ser mayor o igual a Td Ts=9.4 - Td=9.5 2023-10-25 00:34:00
1 2015-09-08 11:00:00 Ts debe ser mayor o igual a Td Ts=9.4 - Td=9.5 2023-10-25 00:34:00
1 2015-09-10 10:00:00 Ts debe ser mayor o igual a Td Ts=5.7 - Td=5.8 2023-10-25 00:34:00
1 2015-09-10 13:00:00 Ts debe ser mayor o igual a Td Ts=8.2 - Td=8.3 2023-10-25 00:34:00
1 2015-09-28 11:00:00 Ts debe ser mayor o igual a Td Ts=8.1 - Td=8.2 2023-10-25 00:34:00
1 2015-09-28 16:00:00 Ts debe ser mayor o igual a Td Ts=0.0 - Td=44.6 2023-10-25 00:34:00
1 2015-09-28 17:00:00 Ts debe ser mayor o igual a Td Ts=0.0 - Td=40.9 2023-10-25 00:34:00
1 2015-09-28 18:00:00 Ts debe ser mayor o igual a Td Ts=0.0 - Td=36.0 2023-10-25 00:34:00
1 2015-09-28 19:00:00 Ts debe ser mayor o igual a Td Ts=0.0 - Td=34.2 2023-10-25 00:34:00
1 2015-09-28 20:00:00 Ts debe ser mayor o igual a Td Ts=0.0 - Td=34.7 2023-10-25 00:34:00
1 2015-09-28 21:00:00 Ts debe ser mayor o igual a Td Ts=0.0 - Td=36.6 2023-10-25 00:34:00
1 2015-09-29 05:00:00 Ts debe ser mayor o igual a Td Ts=11.6 - Td=11.7 2023-10-25 00:34:00
1 2015-09-29 07:00:00 Ts debe ser mayor o igual a Td Ts=10.8 - Td=10.9 2023-10-25 00:34:00
1 2015-09-29 08:00:00 Ts debe ser mayor o igual a Td Ts=10.6 - Td=10.7 2023-10-25 00:34:00
1 2015-10-02 04:00:00 Ts debe ser mayor o igual a Td Ts=7.1 - Td=7.2 2023-10-25 00:35:00
1 2015-10-02 11:00:00 Ts debe ser mayor o igual a Td Ts=5.7 - Td=5.8 2023-10-25 00:35:00
1 2015-10-02 12:00:00 Ts debe ser mayor o igual a Td Ts=8.7 - Td=8.8 2023-10-25 00:35:00
1 2015-10-16 12:00:00 Ts debe ser mayor o igual a Td Ts=7.0 - Td=7.1 2023-10-25 00:35:00
1 2015-10-20 10:00:00 Ts debe ser mayor o igual a Td Ts=5.7 - Td=5.8 2023-10-25 00:35:00
1 2015-10-21 13:00:00 Ts debe ser mayor o igual a Td Ts=9.3 - Td=9.4 2023-10-25 00:35:00
1 2015-10-25 10:00:00 Ts debe ser mayor o igual a Td Ts=4.8 - Td=4.9 2023-10-25 00:35:00
1 2015-11-14 10:00:00 Ts debe ser mayor o igual a Td Ts=8.2 - Td=8.3 2023-10-25 00:35:00
1 2016-03-16 13:00:00 Ts debe ser mayor o igual a Td Ts=12.3 - Td=12.4 2023-10-25 00:37:00
1 2016-04-18 00:00:00 Ts debe ser mayor o igual a Td Ts=13.3 - Td=13.4 2023-10-25 00:38:00
1 2016-04-18 02:00:00 Ts debe ser mayor o igual a Td Ts=13.0 - Td=13.1 2023-10-25 00:38:00
1 2016-04-18 09:00:00 Ts debe ser mayor o igual a Td Ts=12.3 - Td=12.4 2023-10-25 00:38:00
1 2016-04-18 12:00:00 Ts debe ser mayor o igual a Td Ts=12.2 - Td=12.3 2023-10-25 00:38:00
1 2016-05-07 15:00:00 Ts debe ser mayor o igual a Td Ts=12.6 - Td=12.7 2023-10-25 00:38:00
1 2016-05-16 13:00:00 Ts debe ser mayor o igual a Td Ts=9.2 - Td=9.3 2023-10-25 00:38:00
1 2016-05-17 05:00:00 Ts debe ser mayor o igual a Td Ts=11.4 - Td=11.5 2023-10-25 00:38:00
1 2016-05-17 06:00:00 Ts debe ser mayor o igual a Td Ts=11.4 - Td=11.5 2023-10-25 00:38:00
1 2016-05-17 13:00:00 Ts debe ser mayor o igual a Td Ts=11.7 - Td=11.8 2023-10-25 00:38:00
1 2016-05-18 10:00:00 Ts debe ser mayor o igual a Td Ts=11.5 - Td=11.6 2023-10-25 00:38:00
1 2016-05-19 09:00:00 Ts debe ser mayor o igual a Td Ts=11.4 - Td=11.5 2023-10-25 00:38:00
1 2016-05-20 12:00:00 Ts debe ser mayor o igual a Td Ts=13.7 - Td=13.8 2023-10-25 00:38:00
1 2016-05-22 09:00:00 Ts debe ser mayor o igual a Td Ts=8.9 - Td=9.0 2023-10-25 00:38:00
1 2016-05-22 11:00:00 Ts debe ser mayor o igual a Td Ts=7.2 - Td=7.3 2023-10-25 00:38:00
1 2016-05-23 12:00:00 Ts debe ser mayor o igual a Td Ts=8.5 - Td=8.6 2023-10-25 00:38:00
1 2016-05-23 13:00:00 Ts debe ser mayor o igual a Td Ts=9.4 - Td=9.5 2023-10-25 00:38:00
1 2016-05-26 09:00:00 Ts debe ser mayor o igual a Td Ts=8.6 - Td=8.7 2023-10-25 00:39:00
1 2016-05-26 10:00:00 Ts debe ser mayor o igual a Td Ts=8.3 - Td=8.4 2023-10-25 00:39:00
1 2016-05-26 13:00:00 Ts debe ser mayor o igual a Td Ts=8.5 - Td=8.6 2023-10-25 00:39:00
1 2016-05-30 06:00:00 Ts debe ser mayor o igual a Td Ts=9.1 - Td=9.2 2023-10-25 00:39:00
1 2016-05-30 10:00:00 Ts debe ser mayor o igual a Td Ts=9.3 - Td=9.4 2023-10-25 00:39:00
1 2016-05-30 16:00:00 Ts debe ser mayor o igual a Td Ts=15.8 - Td=15.9 2023-10-25 00:39:00
1 2016-05-31 09:00:00 Ts debe ser mayor o igual a Td Ts=9.1 - Td=9.2 2023-10-25 00:39:00
1 2016-05-31 12:00:00 Ts debe ser mayor o igual a Td Ts=9.3 - Td=9.4 2023-10-25 00:39:00
1 2016-06-02 15:00:00 Ts debe ser mayor o igual a Td Ts=8.4 - Td=8.5 2023-10-25 00:39:00
1 2016-06-03 10:00:00 Ts debe ser mayor o igual a Td Ts=10.3 - Td=10.4 2023-10-25 00:39:00
1 2016-06-03 14:00:00 Ts debe ser mayor o igual a Td Ts=10.8 - Td=10.9 2023-10-25 00:39:00
1 2016-06-03 20:00:00 Ts debe ser mayor o igual a Td Ts=11.4 - Td=11.5 2023-10-25 00:39:00
1 2016-06-04 01:00:00 Ts debe ser mayor o igual a Td Ts=9.4 - Td=9.5 2023-10-25 00:39:00
1 2016-06-04 08:00:00 Ts debe ser mayor o igual a Td Ts=7.5 - Td=7.6 2023-10-25 00:39:00
1 2016-06-04 13:00:00 Ts debe ser mayor o igual a Td Ts=5.6 - Td=5.7 2023-10-25 00:39:00
1 2016-06-04 15:00:00 Ts debe ser mayor o igual a Td Ts=8.2 - Td=8.3 2023-10-25 00:39:00
1 2016-06-09 15:00:00 Ts debe ser mayor o igual a Td Ts=8.5 - Td=8.6 2023-10-25 00:39:00
1 2016-06-14 09:00:00 Ts debe ser mayor o igual a Td Ts=7.1 - Td=7.2 2023-10-25 00:39:00
1 2016-06-15 07:00:00 Ts debe ser mayor o igual a Td Ts=5.6 - Td=5.7 2023-10-25 00:39:00
1 2016-06-16 16:00:00 Ts debe ser mayor o igual a Td Ts=6.9 - Td=7.0 2023-10-25 00:39:00
1 2016-06-19 15:00:00 Ts debe ser mayor o igual a Td Ts=7.8 - Td=7.9 2023-10-25 00:39:00
1 2016-06-19 17:00:00 Ts debe ser mayor o igual a Td Ts=9.0 - Td=9.1 2023-10-25 00:39:00
1 2016-06-21 16:00:00 Ts debe ser mayor o igual a Td Ts=6.9 - Td=7.0 2023-10-25 00:39:00
1 2016-06-22 16:00:00 Ts debe ser mayor o igual a Td Ts=7.5 - Td=7.6 2023-10-25 00:39:00
1 2016-07-01 06:00:00 Ts debe ser mayor o igual a Td Ts=7.1 - Td=7.2 2023-10-25 00:39:00
1 2016-07-02 00:00:00 Ts debe ser mayor o igual a Td Ts=7.3 - Td=7.4 2023-10-25 00:39:00
1 2016-07-02 06:00:00 Ts debe ser mayor o igual a Td Ts=8.3 - Td=8.4 2023-10-25 00:39:00
1 2016-07-04 15:00:00 Ts debe ser mayor o igual a Td Ts=8.8 - Td=8.9 2023-10-25 00:39:00
1 2016-07-08 07:00:00 Ts debe ser mayor o igual a Td Ts=5.6 - Td=5.7 2023-10-25 00:39:00
1 2016-07-08 12:00:00 Ts debe ser mayor o igual a Td Ts=8.3 - Td=8.4 2023-10-25 00:39:00
1 2016-07-09 15:00:00 Ts debe ser mayor o igual a Td Ts=6.9 - Td=7.0 2023-10-25 00:39:00
1 2016-07-10 03:00:00 Ts debe ser mayor o igual a Td Ts=6.9 - Td=7.0 2023-10-25 00:39:00
1 2016-07-10 15:00:00 Ts debe ser mayor o igual a Td Ts=8.7 - Td=8.8 2023-10-25 00:39:00
1 2016-07-13 21:00:00 Ts debe ser mayor o igual a Td Ts=7.0 - Td=7.1 2023-10-25 00:39:00
1 2016-07-13 22:00:00 Ts debe ser mayor o igual a Td Ts=7.1 - Td=7.2 2023-10-25 00:39:00
1 2016-07-19 16:00:00 Ts debe ser mayor o igual a Td Ts=7.4 - Td=7.5 2023-10-25 00:39:00
1 2016-07-21 01:00:00 Ts debe ser mayor o igual a Td Ts=7.4 - Td=7.5 2023-10-25 00:39:00
1 2016-07-21 02:00:00 Ts debe ser mayor o igual a Td Ts=7.5 - Td=7.6 2023-10-25 00:39:00
1 2016-07-21 19:00:00 Ts debe ser mayor o igual a Td Ts=7.1 - Td=7.2 2023-10-25 00:39:00
1 2016-07-21 22:00:00 Ts debe ser mayor o igual a Td Ts=7.1 - Td=7.2 2023-10-25 00:39:00
1 2016-07-22 02:00:00 Ts debe ser mayor o igual a Td Ts=6.9 - Td=7.0 2023-10-25 00:39:00
1 2016-07-23 02:00:00 Ts debe ser mayor o igual a Td Ts=7.5 - Td=7.6 2023-10-25 00:39:00
1 2016-07-23 17:00:00 Ts debe ser mayor o igual a Td Ts=7.4 - Td=7.5 2023-10-25 00:40:00
1 2016-07-25 02:00:00 Ts debe ser mayor o igual a Td Ts=8.1 - Td=8.2 2023-10-25 00:40:00
1 2016-07-25 05:00:00 Ts debe ser mayor o igual a Td Ts=7.6 - Td=7.7 2023-10-25 00:40:00
1 2016-07-25 08:00:00 Ts debe ser mayor o igual a Td Ts=7.3 - Td=7.4 2023-10-25 00:40:00
1 2016-07-29 07:00:00 Ts debe ser mayor o igual a Td Ts=6.9 - Td=7.0 2023-10-25 00:40:00
1 2016-08-02 03:00:00 Ts debe ser mayor o igual a Td Ts=4.8 - Td=4.9 2023-10-25 00:40:00
1 2016-08-04 02:00:00 Ts debe ser mayor o igual a Td Ts=8.4 - Td=8.5 2023-10-25 00:40:00
1 2016-08-05 09:00:00 Ts debe ser mayor o igual a Td Ts=5.6 - Td=5.7 2023-10-25 00:40:00
1 2016-08-08 02:00:00 Ts debe ser mayor o igual a Td Ts=8.4 - Td=8.5 2023-10-25 00:40:00
1 2016-08-08 03:00:00 Ts debe ser mayor o igual a Td Ts=7.8 - Td=7.9 2023-10-25 00:40:00
1 2016-08-11 09:00:00 Ts debe ser mayor o igual a Td Ts=7.6 - Td=7.7 2023-10-25 00:40:00
1 2016-08-16 04:00:00 Ts debe ser mayor o igual a Td Ts=10.6 - Td=10.7 2023-10-25 00:40:00
1 2016-08-23 08:00:00 Ts debe ser mayor o igual a Td Ts=5.7 - Td=5.8 2023-10-25 00:40:00
1 2016-08-24 08:00:00 Ts debe ser mayor o igual a Td Ts=9.0 - Td=9.1 2023-10-25 00:40:00
1 2016-08-29 14:00:00 Ts debe ser mayor o igual a Td Ts=7.3 - Td=7.4 2023-10-25 00:40:00
1 2016-09-10 09:00:00 Ts debe ser mayor o igual a Td Ts=7.4 - Td=7.5 2023-10-25 00:40:00
1 2016-09-10 10:00:00 Ts debe ser mayor o igual a Td Ts=7.2 - Td=7.3 2023-10-25 00:40:00
1 2016-09-10 11:00:00 Ts debe ser mayor o igual a Td Ts=6.9 - Td=7.0 2023-10-25 00:40:00
1 2016-09-19 10:00:00 Ts debe ser mayor o igual a Td Ts=4.8 - Td=4.9 2023-10-25 00:40:00
1 2016-09-19 12:00:00 Ts debe ser mayor o igual a Td Ts=8.6 - Td=8.7 2023-10-25 00:40:00
1 2016-11-05 10:00:00 Ts debe ser mayor o igual a Td Ts=10.6 - Td=10.7 2023-10-25 00:41:00
1 2017-06-02 15:00:00 Ts debe ser mayor o igual a Td Ts=5.7 - Td=5.8 2023-10-25 00:45:00
1 2017-06-02 16:00:00 Ts debe ser mayor o igual a Td Ts=8.8 - Td=8.9 2023-10-25 00:45:00
1 2017-06-12 16:00:00 Ts debe ser mayor o igual a Td Ts=9.1 - Td=9.2 2023-10-25 00:45:00
1 2017-06-24 09:00:00 Ts debe ser mayor o igual a Td Ts=9.4 - Td=9.5 2023-10-25 00:45:00
1 2017-06-28 14:00:00 Ts debe ser mayor o igual a Td Ts=5.6 - Td=5.7 2023-10-25 00:45:00
1 2017-06-28 15:00:00 Ts debe ser mayor o igual a Td Ts=8.5 - Td=8.6 2023-10-25 00:45:00
1 2017-07-09 09:00:00 Ts debe ser mayor o igual a Td Ts=8.8 - Td=8.9 2023-10-25 00:45:00
1 2017-07-09 14:00:00 Ts debe ser mayor o igual a Td Ts=8.8 - Td=8.9 2023-10-25 00:45:00
1 2017-07-10 12:00:00 Ts debe ser mayor o igual a Td Ts=7.2 - Td=7.3 2023-10-25 00:45:00
1 2017-07-14 14:00:00 Ts debe ser mayor o igual a Td Ts=8.3 - Td=8.4 2023-10-25 00:45:00
1 2017-08-12 15:00:00 Ts debe ser mayor o igual a Td Ts=7.0 - Td=7.1 2023-10-25 00:46:00
1 2017-08-29 14:00:00 Ts debe ser mayor o igual a Td Ts=9.3 - Td=9.4 2023-10-25 00:46:00
1 2018-07-07 15:00:00 Ts debe ser mayor o igual a Td Ts=8.1 - Td=8.2 2023-10-25 00:51:00
1 2018-07-14 14:00:00 Ts debe ser mayor o igual a Td Ts=9.1 - Td=9.2 2023-10-25 00:51:00
1 2019-07-13 11:00:00 Ts debe ser mayor o igual a Td Ts=4.8 - Td=4.9 2023-10-25 00:58:00
1 2019-07-18 13:00:00 Ts debe ser mayor o igual a Td Ts=8.7 - Td=8.8 2023-10-25 00:58:00
1 2019-07-28 15:00:00 Ts debe ser mayor o igual a Td Ts=7.6 - Td=7.7 2023-10-25 00:58:00
1 2019-08-19 14:00:00 Ts debe ser mayor o igual a Td Ts=7.4 - Td=7.5 2023-10-25 00:59:00
1 2019-10-01 12:00:00 Ts debe ser mayor o igual a Td Ts=0.5 - Td=5.6 2023-10-25 00:59:00
1 2019-10-02 11:00:00 Ts debe ser mayor o igual a Td Ts=-1.3 - Td=-1.0 2023-10-25 00:59:00
1 2019-10-02 12:00:00 Ts debe ser mayor o igual a Td Ts=-0.7 - Td=1.4 2023-10-25 00:59:00
1 2019-10-02 13:00:00 Ts debe ser mayor o igual a Td Ts=1.7 - Td=7.4 2023-10-25 00:59:00
1 2019-10-03 11:00:00 Ts debe ser mayor o igual a Td Ts=0.3 - Td=0.7 2023-10-25 00:59:00
1 2019-10-03 12:00:00 Ts debe ser mayor o igual a Td Ts=1.5 - Td=3.0 2023-10-25 00:59:00
1 2019-10-03 13:00:00 Ts debe ser mayor o igual a Td Ts=6.0 - Td=6.6 2023-10-25 00:59:00
1 2019-10-04 09:00:00 Ts debe ser mayor o igual a Td Ts=0.0 - Td=0.3 2023-10-25 00:59:00
1 2019-10-04 12:00:00 Ts debe ser mayor o igual a Td Ts=0.6 - Td=2.9 2023-10-25 00:59:00
1 2019-10-04 13:00:00 Ts debe ser mayor o igual a Td Ts=3.2 - Td=7.6 2023-10-25 00:59:00
1 2019-10-05 07:00:00 Ts debe ser mayor o igual a Td Ts=4.5 - Td=4.6 2023-10-25 00:59:00
1 2019-10-05 10:00:00 Ts debe ser mayor o igual a Td Ts=3.6 - Td=3.8 2023-10-25 00:59:00
1 2019-10-05 12:00:00 Ts debe ser mayor o igual a Td Ts=3.6 - Td=3.9 2023-10-25 00:59:00
1 2019-10-05 13:00:00 Ts debe ser mayor o igual a Td Ts=4.0 - Td=6.7 2023-10-25 00:59:00
1 2019-10-05 14:00:00 Ts debe ser mayor o igual a Td Ts=6.9 - Td=8.5 2023-10-25 00:59:00
1 2019-10-06 02:00:00 Ts debe ser mayor o igual a Td Ts=6.3 - Td=6.5 2023-10-25 00:59:00
1 2019-10-06 09:00:00 Ts debe ser mayor o igual a Td Ts=1.4 - Td=1.5 2023-10-25 00:59:00
1 2019-10-06 11:00:00 Ts debe ser mayor o igual a Td Ts=0.9 - Td=3.0 2023-10-25 00:59:00
1 2019-10-06 12:00:00 Ts debe ser mayor o igual a Td Ts=3.7 - Td=5.6 2023-10-25 00:59:00
1 2019-10-07 10:00:00 Ts debe ser mayor o igual a Td Ts=3.5 - Td=3.7 2023-10-25 00:59:00
1 2019-10-07 11:00:00 Ts debe ser mayor o igual a Td Ts=4.2 - Td=6.1 2023-10-25 00:59:00
1 2019-10-07 12:00:00 Ts debe ser mayor o igual a Td Ts=6.8 - Td=8.7 2023-10-25 00:59:00
1 2019-10-08 11:00:00 Ts debe ser mayor o igual a Td Ts=4.2 - Td=5.9 2023-10-25 00:59:00
1 2019-10-08 12:00:00 Ts debe ser mayor o igual a Td Ts=7.2 - Td=10.0 2023-10-25 00:59:00
1 2019-10-11 12:00:00 Ts debe ser mayor o igual a Td Ts=7.3 - Td=9.5 2023-10-25 00:59:00
1 2019-11-01 10:00:00 Ts debe ser mayor o igual a Td Ts=1.1 - Td=1.3 2023-10-25 01:00:00
1 2019-11-01 11:00:00 Ts debe ser mayor o igual a Td Ts=2.0 - Td=3.2 2023-10-25 01:00:00
1 2019-11-01 12:00:00 Ts debe ser mayor o igual a Td Ts=3.7 - Td=10.4 2023-10-25 01:00:00
1 2019-11-02 11:00:00 Ts debe ser mayor o igual a Td Ts=4.0 - Td=7.5 2023-10-25 01:00:00
1 2019-11-02 12:00:00 Ts debe ser mayor o igual a Td Ts=7.9 - Td=11.9 2023-10-25 01:00:00
1 2019-11-03 12:00:00 Ts debe ser mayor o igual a Td Ts=7.9 - Td=9.5 2023-10-25 01:00:00
1 2019-11-03 13:00:00 Ts debe ser mayor o igual a Td Ts=9.9 - Td=10.6 2023-10-25 01:00:00
1 2019-11-05 09:00:00 Ts debe ser mayor o igual a Td Ts=5.5 - Td=6.0 2023-10-25 01:00:00
1 2019-11-05 11:00:00 Ts debe ser mayor o igual a Td Ts=6.8 - Td=7.4 2023-10-25 01:00:00
1 2019-11-05 12:00:00 Ts debe ser mayor o igual a Td Ts=7.6 - Td=10.6 2023-10-25 01:00:00
1 2019-11-05 13:00:00 Ts debe ser mayor o igual a Td Ts=11.2 - Td=12.7 2023-10-25 01:00:00
1 2019-11-06 11:00:00 Ts debe ser mayor o igual a Td Ts=6.6 - Td=6.7 2023-10-25 01:00:00
1 2019-11-06 12:00:00 Ts debe ser mayor o igual a Td Ts=7.1 - Td=11.9 2023-10-25 01:00:00
1 2019-11-07 11:00:00 Ts debe ser mayor o igual a Td Ts=5.5 - Td=7.8 2023-10-25 01:00:00
1 2019-11-08 11:00:00 Ts debe ser mayor o igual a Td Ts=6.1 - Td=7.1 2023-10-25 01:00:00
1 2019-11-08 12:00:00 Ts debe ser mayor o igual a Td Ts=8.4 - Td=10.7 2023-10-25 01:00:00
1 2019-11-09 11:00:00 Ts debe ser mayor o igual a Td Ts=5.7 - Td=8.4 2023-10-25 01:00:00
1 2019-11-10 11:00:00 Ts debe ser mayor o igual a Td Ts=6.4 - Td=7.5 2023-10-25 01:00:00
1 2019-11-11 08:00:00 Ts debe ser mayor o igual a Td Ts=7.4 - Td=11.1 2023-10-25 01:00:00
1 2019-11-13 12:00:00 Ts debe ser mayor o igual a Td Ts=12.3 - Td=12.4 2023-10-25 01:00:00
1 2019-11-14 11:00:00 Ts debe ser mayor o igual a Td Ts=9.3 - Td=10.3 2023-10-25 01:00:00
1 2019-11-14 12:00:00 Ts debe ser mayor o igual a Td Ts=11.5 - Td=12.8 2023-10-25 01:00:00
1 2019-11-15 11:00:00 Ts debe ser mayor o igual a Td Ts=7.1 - Td=8.2 2023-10-25 01:00:00
1 2019-11-16 10:00:00 Ts debe ser mayor o igual a Td Ts=9.2 - Td=9.9 2023-10-25 01:00:00
1 2019-11-16 11:00:00 Ts debe ser mayor o igual a Td Ts=10.9 - Td=12.0 2023-10-25 01:00:00
1 2019-11-17 11:00:00 Ts debe ser mayor o igual a Td Ts=4.5 - Td=7.8 2023-10-25 01:00:00
1 2019-11-18 10:00:00 Ts debe ser mayor o igual a Td Ts=6.4 - Td=6.7 2023-10-25 01:00:00
1 2019-11-19 11:00:00 Ts debe ser mayor o igual a Td Ts=7.5 - Td=8.2 2023-10-25 01:00:00
1 2019-11-20 11:00:00 Ts debe ser mayor o igual a Td Ts=6.8 - Td=7.3 2023-10-25 01:00:00
1 2019-11-21 11:00:00 Ts debe ser mayor o igual a Td Ts=9.1 - Td=10.0 2023-10-25 01:00:00
1 2019-11-22 11:00:00 Ts debe ser mayor o igual a Td Ts=8.4 - Td=11.3 2023-10-25 01:00:00
1 2019-11-23 11:00:00 Ts debe ser mayor o igual a Td Ts=7.1 - Td=8.8 2023-10-25 01:00:00
1 2019-11-26 11:00:00 Ts debe ser mayor o igual a Td Ts=3.9 - Td=5.8 2023-10-25 01:00:00
1 2019-11-27 11:00:00 Ts debe ser mayor o igual a Td Ts=3.4 - Td=6.3 2023-10-25 01:00:00
1 2019-11-28 11:00:00 Ts debe ser mayor o igual a Td Ts=4.9 - Td=7.3 2023-10-25 01:00:00
1 2019-11-28 12:00:00 Ts debe ser mayor o igual a Td Ts=10.0 - Td=10.4 2023-10-25 01:00:00
1 2019-11-29 11:00:00 Ts debe ser mayor o igual a Td Ts=5.6 - Td=7.7 2023-10-25 01:00:00
1 2019-11-30 11:00:00 Ts debe ser mayor o igual a Td Ts=5.3 - Td=7.6 2023-10-25 01:00:00
1 2019-12-01 11:00:00 Ts debe ser mayor o igual a Td Ts=5.4 - Td=7.9 2023-10-25 01:00:00
1 2019-12-03 10:00:00 Ts debe ser mayor o igual a Td Ts=7.1 - Td=7.6 2023-10-25 01:00:00
1 2019-12-03 11:00:00 Ts debe ser mayor o igual a Td Ts=8.0 - Td=10.9 2023-10-25 01:00:00
1 2019-12-03 12:00:00 Ts debe ser mayor o igual a Td Ts=11.5 - Td=13.0 2023-10-25 01:00:00
1 2019-12-04 11:00:00 Ts debe ser mayor o igual a Td Ts=4.4 - Td=7.4 2023-10-25 01:00:00
1 2019-12-06 11:00:00 Ts debe ser mayor o igual a Td Ts=9.5 - Td=9.7 2023-10-25 01:00:00
1 2019-12-06 12:00:00 Ts debe ser mayor o igual a Td Ts=10.3 - Td=11.2 2023-10-25 01:00:00
1 2019-12-10 06:00:00 Ts debe ser mayor o igual a Td Ts=8.3 - Td=9.3 2023-10-25 01:01:00
1 2019-12-12 10:00:00 Ts debe ser mayor o igual a Td Ts=6.4 - Td=6.5 2023-10-25 01:01:00
1 2019-12-12 11:00:00 Ts debe ser mayor o igual a Td Ts=7.6 - Td=9.7 2023-10-25 01:01:00
1 2019-12-15 10:00:00 Ts debe ser mayor o igual a Td Ts=6.0 - Td=6.9 2023-10-25 01:01:00
1 2019-12-15 11:00:00 Ts debe ser mayor o igual a Td Ts=8.2 - Td=8.4 2023-10-25 01:01:00
1 2019-12-16 11:00:00 Ts debe ser mayor o igual a Td Ts=7.9 - Td=9.1 2023-10-25 01:01:00
1 2019-12-16 12:00:00 Ts debe ser mayor o igual a Td Ts=9.8 - Td=11.7 2023-10-25 01:01:00
1 2019-12-17 10:00:00 Ts debe ser mayor o igual a Td Ts=5.1 - Td=5.6 2023-10-25 01:01:00
1 2019-12-17 11:00:00 Ts debe ser mayor o igual a Td Ts=6.5 - Td=8.8 2023-10-25 01:01:00
Errores del Nivel 277
Nivel Fecha del Dato Descripción Información Error Fecha Ingreso
2 1999-07-29 00:00:00 Temperatura 11.0 del 29-07-1999 00:00, Mayor que la Máxima 10.8 29-07-1999 00:00 11.0 -- 10.8 2023-12-29 00:11:00
2 1999-11-28 00:00:00 Temperatura 21.6 del 27-11-1999 18:00, Mayor que la Máxima 21.2 28-11-1999 00:00 21.6 -- 21.2 2023-12-29 00:11:00
2 2000-02-17 00:00:00 Temperatura 25.4 del 16-02-2000 18:00, Mayor que la Máxima 25.2 17-02-2000 00:00 25.4 -- 25.2 2023-12-29 00:11:00
2 2001-01-06 00:00:00 Temperatura 21.0 del 05-01-2001 18:00, Mayor que la Máxima 20.6 06-01-2001 00:00 21.0 -- 20.6 2023-12-29 00:12:00
2 2001-01-07 00:00:00 Temperatura 24.0 del 06-01-2001 18:00, Mayor que la Máxima 22.6 07-01-2001 00:00 24.0 -- 22.6 2023-12-29 00:12:00
2 2001-01-23 00:00:00 Temperatura 24.8 del 22-01-2001 18:00, Mayor que la Máxima 24.7 23-01-2001 00:00 24.8 -- 24.7 2023-12-29 00:12:00
2 2001-02-02 00:00:00 Temperatura 25.9 del 01-02-2001 18:00, Mayor que la Máxima 25.2 02-02-2001 00:00 25.9 -- 25.2 2023-12-29 00:12:00
2 2001-02-06 00:00:00 Temperatura 27.3 del 05-02-2001 18:00, Mayor que la Máxima 27.1 06-02-2001 00:00 27.3 -- 27.1 2023-12-29 00:12:00
2 2002-02-07 00:00:00 Temperatura 25.4 del 06-02-2002 18:00, Mayor que la Máxima 25.2 07-02-2002 00:00 25.4 -- 25.2 2023-12-29 00:12:00
2 2003-05-02 00:00:00 Temperatura 26.6 del 01-05-2003 18:00, Mayor que la Máxima 23.4 02-05-2003 00:00 26.6 -- 23.4 2023-12-29 22:27:00
2 2003-07-30 00:00:00 Temperatura 28.6 del 29-07-2003 18:00, Mayor que la Máxima 23.6 30-07-2003 00:00 28.6 -- 23.6 2023-12-29 22:27:00
2 2003-10-17 00:00:00 Temperatura 21.4 del 16-10-2003 18:00, Mayor que la Máxima 21.3 17-10-2003 00:00 21.4 -- 21.3 2023-12-29 22:27:00
2 2003-10-24 00:00:00 Temperatura 23.8 del 23-10-2003 18:00, Mayor que la Máxima 16.6 24-10-2003 00:00 23.8 -- 16.6 2023-12-29 22:27:00
2 2004-09-01 00:00:00 Temperatura 16.4 del 31-08-2004 18:00, Mayor que la Máxima 16.0 01-09-2004 00:00 16.4 -- 16.0 2023-12-31 02:38:00
2 2004-09-18 00:00:00 Temperatura 13.0 del 17-09-2004 18:00, Mayor que la Máxima 12.6 18-09-2004 00:00 13.0 -- 12.6 2023-12-31 02:38:00
2 2009-03-15 00:00:00 Temperatura 30.5 del 14-03-2009 17:00, Mayor que la Máxima 28.6 15-03-2009 00:00 30.5 -- 28.6 2023-12-31 00:58:00
2 2009-03-21 00:00:00 Temperatura 24.5 del 20-03-2009 16:00, Mayor que la Máxima 20.7 21-03-2009 00:00 24.5 -- 20.7 2023-12-31 00:58:00
2 2009-03-23 00:00:00 Temperatura 25.2 del 22-03-2009 15:00, Mayor que la Máxima 23.1 23-03-2009 00:00 25.2 -- 23.1 2023-12-31 00:58:00
2 2009-03-26 00:00:00 Temperatura 23.7 del 25-03-2009 16:00, Mayor que la Máxima 23.1 26-03-2009 00:00 23.7 -- 23.1 2023-12-31 00:59:00
2 2009-03-27 00:00:00 Temperatura 25.4 del 26-03-2009 16:00, Mayor que la Máxima 23.7 27-03-2009 00:00 25.4 -- 23.7 2023-12-31 00:59:00
2 2009-03-29 00:00:00 Temperatura 27.4 del 28-03-2009 16:00, Mayor que la Máxima 22.4 29-03-2009 00:00 27.4 -- 22.4 2023-12-31 00:59:00
2 2009-03-31 00:00:00 Temperatura 25.9 del 30-03-2009 15:00, Mayor que la Máxima 24.2 31-03-2009 00:00 25.9 -- 24.2 2023-12-31 00:59:00
2 2009-04-01 00:00:00 Temperatura 31.7 del 31-03-2009 16:00, Mayor que la Máxima 27.6 01-04-2009 00:00 31.7 -- 27.6 2023-12-31 00:59:00
2 2001-01-02 12:00:00 Temperatura 6.2 del 02-01-2001 12:00, Menor que la Mínima 7.5 02-01-2001 12:00 6.2 -- 7.5 2023-12-29 00:12:00
2 2002-08-06 12:00:00 Temperatura 8.0 del 06-08-2002 12:00, Menor que la Mínima 8.6 06-08-2002 12:00 8.0 -- 8.6 2023-12-29 00:13:00
2 2002-11-11 12:00:00 Temperatura 10.4 del 11-11-2002 12:00, Menor que la Mínima 13.8 11-11-2002 12:00 10.4 -- 13.8 2023-12-29 00:13:00
2 2002-11-18 12:00:00 Temperatura 12.2 del 18-11-2002 12:00, Menor que la Mínima 15.0 18-11-2002 12:00 12.2 -- 15.0 2023-12-29 00:13:00
2 2003-01-16 12:00:00 Temperatura 12.4 del 16-01-2003 12:00, Menor que la Mínima 18.6 16-01-2003 12:00 12.4 -- 18.6 2023-12-30 22:02:00
2 2003-04-29 12:00:00 Temperatura 4.8 del 29-04-2003 12:00, Menor que la Mínima 11.0 29-04-2003 12:00 4.8 -- 11.0 2023-12-30 22:03:00
2 2003-07-02 12:00:00 Temperatura 3.2 del 02-07-2003 12:00, Menor que la Mínima 5.2 02-07-2003 12:00 3.2 -- 5.2 2023-12-29 22:27:00
2 2009-03-14 12:00:00 Temperatura 6.9 del 14-03-2009 11:00, Menor que la Mínima 12.6 14-03-2009 12:00 6.9 -- 12.6 2023-12-31 00:58:00
2 2009-03-15 12:00:00 Temperatura 5.7 del 15-03-2009 09:00, Menor que la Mínima 6.7 15-03-2009 12:00 5.7 -- 6.7 2023-12-31 00:58:00
2 2009-03-16 12:00:00 Temperatura 4.4 del 16-03-2009 09:00, Menor que la Mínima 5.6 16-03-2009 12:00 4.4 -- 5.6 2023-12-31 00:58:00
2 2009-03-20 12:00:00 Temperatura 10.0 del 20-03-2009 11:00, Menor que la Mínima 13.0 20-03-2009 12:00 10.0 -- 13.0 2023-12-31 00:58:00
2 2009-03-21 12:00:00 Temperatura 8.2 del 21-03-2009 09:00, Menor que la Mínima 10.0 21-03-2009 12:00 8.2 -- 10.0 2023-12-31 00:58:00
2 2009-03-22 12:00:00 Temperatura 2.5 del 22-03-2009 09:00, Menor que la Mínima 7.8 22-03-2009 12:00 2.5 -- 7.8 2023-12-31 00:58:00
2 2009-03-25 12:00:00 Temperatura 7.6 del 25-03-2009 03:00, Menor que la Mínima 9.2 25-03-2009 12:00 7.6 -- 9.2 2023-12-31 00:59:00
2 2009-03-26 12:00:00 Temperatura 5.4 del 26-03-2009 09:00, Menor que la Mínima 7.6 26-03-2009 12:00 5.4 -- 7.6 2023-12-31 00:59:00
2 2009-03-28 12:00:00 Temperatura 7.8 del 28-03-2009 09:00, Menor que la Mínima 11.0 28-03-2009 12:00 7.8 -- 11.0 2023-12-31 00:59:00
2 2009-03-30 12:00:00 Temperatura 10.1 del 30-03-2009 09:00, Menor que la Mínima 13.4 30-03-2009 12:00 10.1 -- 13.4 2023-12-31 00:59:00
2 2009-03-31 12:00:00 Temperatura 7.4 del 31-03-2009 10:00, Menor que la Mínima 10.0 31-03-2009 12:00 7.4 -- 10.0 2023-12-31 00:59:00
Errores del Nivel 41
Informe generado el 23-02-2024 10:26
Requerimiento: RE6001